Time;durP1;ratioP1;P1;durP2;ratioP2;P2;SDS_P1;SDS_P2;PMS_P1;PMS_P2;Temp;Humidity;BMP_temperature;BMP_pressure;BME280_temperature;BME280_humidity;BME280_pressure;Samples;Min_cycle;Max_cycle;Signal;HPM_P1;HPM_P2
2021/09/21 00:02:05;;;;;;;2.75;1.60;;;14.10;71.50;;;;;;5014384;28;20049;-78
2021/09/21 00:04:31;;;;;;;3.40;2.78;;;14.10;71.50;;;;;;5032198;28;20049;-77
2021/09/21 00:06:57;;;;;;;1.98;1.77;;;14.10;71.50;;;;;;5013835;28;20092;-77
2021/09/21 00:09:23;;;;;;;1.90;1.63;;;14.00;71.40;;;;;;5012009;28;20057;-77
2021/09/21 00:11:50;;;;;;;2.33;1.80;;;14.00;71.50;;;;;;5009632;28;20053;-79
2021/09/21 00:14:15;;;;;;;3.90;2.50;;;14.00;71.50;;;;;;5007727;28;20060;-74
2021/09/21 00:16:41;;;;;;;3.45;1.92;;;14.00;71.60;;;;;;4967274;28;20508;-78
2021/09/21 00:19:08;;;;;;;2.25;2.00;;;13.90;71.50;;;;;;4981121;28;20034;-78
2021/09/21 00:21:34;;;;;;;2.28;1.90;;;13.90;71.50;;;;;;5008022;28;20030;-78
2021/09/21 00:23:59;;;;;;;2.03;1.60;;;13.90;71.50;;;;;;4990571;28;20030;-78
2021/09/21 00:26:25;;;;;;;2.88;1.67;;;13.90;71.60;;;;;;5008229;28;20026;-75
2021/09/21 00:28:51;;;;;;;2.65;1.95;;;13.90;71.60;;;;;;4973897;28;20129;-78
2021/09/21 00:31:20;;;;;;;2.08;1.63;;;13.90;71.70;;;;;;4990365;28;20075;-78
2021/09/21 00:34:05;;;;;;;3.08;1.75;;;13.90;71.70;;;;;;4980789;28;20047;-77
2021/09/21 00:36:34;;;;;;;1.70;1.23;;;13.80;71.60;;;;;;4986984;28;20026;-78
2021/09/21 00:39:00;;;;;;;2.60;1.50;;;13.80;71.60;;;;;;4988189;28;20461;-77
2021/09/21 00:41:26;;;;;;;2.15;1.90;;;13.80;72.20;;;;;;4954696;28;20106;-77
2021/09/21 00:43:52;;;;;;;2.95;1.70;;;13.80;71.70;;;;;;4970621;28;20431;-78
2021/09/21 00:46:18;;;;;;;2.90;1.60;;;13.80;71.80;;;;;;4972535;28;20034;-78
2021/09/21 00:48:45;;;;;;;2.65;1.80;;;13.80;71.80;;;;;;4970685;28;20050;-78
2021/09/21 00:51:12;;;;;;;2.40;1.73;;;13.70;71.70;;;;;;4988175;28;20057;-78
2021/09/21 00:53:38;;;;;;;2.10;1.65;;;13.70;71.80;;;;;;4962309;28;20093;-78
2021/09/21 00:56:04;;;;;;;3.90;2.50;;;13.70;71.80;;;;;;5008034;28;20468;-78
2021/09/21 00:58:30;;;;;;;2.15;1.50;;;13.70;71.80;;;;;;4973312;28;20482;-78
2021/09/21 01:00:56;;;;;;;3.35;1.60;;;13.60;72.20;;;;;;4990458;28;20044;-77
2021/09/21 01:03:22;;;;;;;3.08;1.60;;;13.60;71.70;;;;;;5007222;28;20026;-78
2021/09/21 01:05:48;;;;;;;3.03;1.60;;;13.60;71.70;;;;;;5005968;28;20096;-78
2021/09/21 01:08:14;;;;;;;4.45;1.75;;;13.60;71.80;;;;;;4987392;28;20454;-78
2021/09/21 01:10:40;;;;;;;2.55;1.70;;;13.60;71.80;;;;;;4986953;28;20030;-77
2021/09/21 01:13:06;;;;;;;3.70;2.05;;;13.60;71.80;;;;;;4957837;28;20497;-77
2021/09/21 01:15:32;;;;;;;2.33;1.80;;;13.50;71.70;;;;;;4974186;28;20026;-77
2021/09/21 01:17:59;;;;;;;2.45;1.60;;;13.50;71.70;;;;;;4990096;28;20128;-77
2021/09/21 01:20:27;;;;;;;2.58;1.63;;;13.50;71.80;;;;;;4989702;28;20069;-77
2021/09/21 01:22:53;;;;;;;2.75;1.90;;;13.50;71.80;;;;;;5005600;28;20034;-76
2021/09/21 01:25:20;;;;;;;3.03;1.63;;;13.50;71.80;;;;;;4987174;28;20122;-77
2021/09/21 01:27:46;;;;;;;3.30;1.75;;;13.40;71.70;;;;;;4986601;28;20114;-77
2021/09/21 01:30:14;;;;;;;2.83;1.40;;;13.40;71.80;;;;;;4988029;28;20090;-78
2021/09/21 01:32:40;;;;;;;1.70;1.60;;;13.40;71.80;;;;;;5006431;28;20057;-77
2021/09/21 01:35:07;;;;;;;2.67;1.70;;;13.40;71.90;;;;;;5008391;28;20120;-77
2021/09/21 01:37:33;;;;;;;2.72;1.73;;;13.30;71.80;;;;;;4990366;28;20058;-77
2021/09/21 01:39:59;;;;;;;2.45;1.65;;;13.30;71.80;;;;;;5007032;28;20092;-77
2021/09/21 01:42:25;;;;;;;2.50;1.55;;;13.30;71.80;;;;;;4990623;28;20064;-77
2021/09/21 01:44:51;;;;;;;2.00;1.77;;;13.30;71.90;;;;;;5006921;28;20633;-77
2021/09/21 01:47:21;;;;;;;1.85;1.60;;;13.40;72.10;;;;;;4975063;28;20057;-77
2021/09/21 01:50:02;;;;;;;2.67;1.67;;;13.30;71.90;;;;;;5011177;28;20061;-77
2021/09/21 01:52:40;;;;;;;2.17;1.80;;;13.30;72.00;;;;;;4976937;28;20041;-78
2021/09/21 02:00:23;;;;;;;1.55;1.45;;;13.20;71.90;;;;;;5009955;28;20095;-76
2021/09/21 02:02:49;;;;;;;2.40;1.83;;;13.20;71.90;;;;;;4993419;28;20088;-78
2021/09/21 02:05:15;;;;;;;2.22;1.63;;;13.20;71.90;;;;;;5009716;28;20041;-76
2021/09/21 02:07:41;;;;;;;1.90;1.50;;;13.20;71.90;;;;;;4993105;28;20049;-76
2021/09/21 02:10:07;;;;;;;2.65;1.60;;;13.20;71.90;;;;;;4993273;28;20049;-77
2021/09/21 02:12:33;;;;;;;3.60;1.77;;;13.20;72.00;;;;;;4993014;28;20053;-77
2021/09/21 02:15:00;;;;;;;3.40;1.65;;;13.10;71.80;;;;;;5009096;28;20045;-77
2021/09/21 02:17:26;;;;;;;3.75;2.28;;;13.10;71.80;;;;;;4976729;28;20030;-77
2021/09/21 02:19:52;;;;;;;3.13;1.67;;;13.10;71.90;;;;;;5010580;28;20049;-77
2021/09/21 02:22:18;;;;;;;2.75;1.70;;;13.10;71.90;;;;;;5010246;28;20030;-77
2021/09/21 02:24:44;;;;;;;1.65;1.52;;;13.00;71.70;;;;;;4976788;28;20030;-78
2021/09/21 02:27:11;;;;;;;2.72;1.65;;;13.00;71.70;;;;;;5010925;28;20033;-77
2021/09/21 02:29:37;;;;;;;2.92;2.03;;;13.00;71.70;;;;;;5009478;28;20026;-77
2021/09/21 02:32:03;;;;;;;2.05;1.52;;;13.00;71.80;;;;;;4992855;28;20446;-77
2021/09/21 02:34:29;;;;;;;2.10;1.88;;;13.00;71.90;;;;;;4992593;28;20045;-76
2021/09/21 02:36:55;;;;;;;2.22;1.83;;;12.90;71.70;;;;;;5009217;28;20112;-77
2021/09/21 02:39:21;;;;;;;3.03;1.70;;;12.90;71.70;;;;;;4992740;28;20058;-76
2021/09/21 02:41:47;;;;;;;2.90;2.38;;;12.90;71.80;;;;;;5012924;28;20038;-77
2021/09/21 02:44:13;;;;;;;1.95;1.80;;;12.80;71.60;;;;;;4980416;28;20030;-77
2021/09/21 02:46:39;;;;;;;2.33;1.88;;;12.80;71.70;;;;;;4996703;28;20061;-77
2021/09/21 02:49:05;;;;;;;2.00;1.70;;;12.80;71.70;;;;;;5011481;28;20030;-77
2021/09/21 02:51:31;;;;;;;2.20;1.85;;;12.80;71.70;;;;;;5015235;28;20045;-77
2021/09/21 02:53:57;;;;;;;2.95;2.13;;;12.70;71.60;;;;;;5016503;28;20046;-77
2021/09/21 02:56:23;;;;;;;2.40;1.67;;;12.80;71.80;;;;;;5000285;28;20034;-77
2021/09/21 02:58:49;;;;;;;2.33;1.88;;;12.80;71.90;;;;;;4994601;28;20117;-77
2021/09/21 03:01:15;;;;;;;2.00;1.83;;;12.70;71.80;;;;;;4995223;28;20026;-76
2021/09/21 03:03:48;;;;;;;2.40;2.20;;;12.70;71.80;;;;;;5007900;28;20148;-77
2021/09/21 03:06:27;;;;;;;4.18;1.90;;;12.70;71.80;;;;;;4994167;28;20022;-77
2021/09/21 03:09:00;;;;;;;2.00;1.80;;;12.70;71.80;;;;;;4976827;28;20121;-78
2021/09/21 03:11:28;;;;;;;2.05;1.80;;;12.70;71.80;;;;;;4976817;28;20026;-78
2021/09/21 03:19:05;;;;;;;1.80;1.58;;;12.60;71.80;;;;;;4976288;28;20126;-77
2021/09/21 03:21:31;;;;;;;2.53;1.60;;;12.60;71.80;;;;;;4992597;28;20030;-78
2021/09/21 03:23:57;;;;;;;1.65;1.52;;;12.60;71.80;;;;;;4992619;28;20037;-78
2021/09/21 03:26:23;;;;;;;2.50;1.85;;;12.60;71.90;;;;;;4976327;28;20027;-78
2021/09/21 03:28:49;;;;;;;2.13;1.70;;;12.50;71.70;;;;;;4976212;28;20037;-78
2021/09/21 03:31:16;;;;;;;3.05;1.92;;;12.50;71.80;;;;;;4993731;28;20110;-77
2021/09/21 03:33:42;;;;;;;3.53;1.95;;;12.50;71.80;;;;;;4976046;28;20056;-78
2021/09/21 03:36:08;;;;;;;4.15;1.88;;;12.50;71.90;;;;;;4975893;28;20117;-77
2021/09/21 03:38:34;;;;;;;3.67;1.83;;;12.50;71.90;;;;;;4993571;28;20041;-77
2021/09/21 03:41:00;;;;;;;2.58;1.88;;;12.50;71.90;;;;;;4975590;28;20034;-78
2021/09/21 03:43:26;;;;;;;2.55;1.73;;;12.50;71.90;;;;;;4975736;28;20036;-77
2021/09/21 03:45:52;;;;;;;2.22;1.67;;;12.50;71.90;;;;;;4993649;28;20034;-77
2021/09/21 03:48:18;;;;;;;3.13;1.60;;;12.40;71.80;;;;;;4993222;28;20063;-77
2021/09/21 03:50:43;;;;;;;2.53;2.08;;;12.40;71.80;;;;;;4976100;28;20042;-76
2021/09/21 03:53:09;;;;;;;3.28;1.55;;;12.40;71.80;;;;;;4991440;28;20097;-77
2021/09/21 03:55:35;;;;;;;4.03;1.83;;;12.40;71.80;;;;;;4991755;28;20460;-76
2021/09/21 03:58:01;;;;;;;2.13;1.92;;;12.40;71.80;;;;;;4975832;28;20037;-77
2021/09/21 04:00:27;;;;;;;1.85;1.70;;;12.40;71.80;;;;;;4993540;28;20038;-77
2021/09/21 04:02:53;;;;;;;2.28;1.60;;;12.30;71.70;;;;;;4992057;28;20031;-78
2021/09/21 04:05:19;;;;;;;3.50;1.80;;;12.30;71.70;;;;;;4993355;28;20026;-77
2021/09/21 04:07:49;;;;;;;3.13;1.88;;;12.30;71.70;;;;;;4991699;28;20029;-76
2021/09/21 04:10:15;;;;;;;1.83;1.70;;;12.30;71.80;;;;;;4991532;28;20037;-76
2021/09/21 04:12:41;;;;;;;2.50;1.85;;;12.20;71.60;;;;;;4975986;28;20022;-78
2021/09/21 04:15:08;;;;;;;1.90;1.48;;;12.30;71.80;;;;;;4975568;28;20196;-77
2021/09/21 04:17:34;;;;;;;2.10;1.80;;;12.20;71.70;;;;;;4986456;28;20037;-77
2021/09/21 04:20:00;;;;;;;1.95;1.80;;;12.20;71.70;;;;;;4975418;28;20030;-79
2021/09/21 04:22:29;;;;;;;2.28;1.88;;;12.20;71.70;;;;;;4974918;28;20501;-76
2021/09/21 04:24:55;;;;;;;2.20;1.88;;;12.20;71.70;;;;;;4992550;28;20034;-76
2021/09/21 04:27:21;;;;;;;2.53;1.65;;;12.10;71.60;;;;;;4975590;28;20034;-78
2021/09/21 04:29:50;;;;;;;1.92;1.77;;;12.10;71.60;;;;;;4974950;28;20033;-77
2021/09/21 04:32:19;;;;;;;2.00;1.60;;;12.10;71.60;;;;;;4991339;28;20362;-77
2021/09/21 04:34:47;;;;;;;3.63;1.63;;;12.10;71.70;;;;;;4991027;28;20042;-77
2021/09/21 04:37:13;;;;;;;2.65;1.83;;;12.10;71.70;;;;;;4990902;28;20022;-77
2021/09/21 04:39:41;;;;;;;2.97;2.28;;;12.10;71.70;;;;;;4992394;28;20380;-77
2021/09/21 04:42:11;;;;;;;1.98;1.40;;;12.10;71.70;;;;;;4991061;28;20529;-78
2021/09/21 04:44:37;;;;;;;3.38;1.88;;;12.10;71.70;;;;;;4992608;28;20169;-77
2021/09/21 04:47:04;;;;;;;2.28;1.75;;;12.10;71.80;;;;;;4991138;28;20046;-76
2021/09/21 04:49:30;;;;;;;2.20;2.00;;;12.00;71.60;;;;;;5004981;28;20037;-77
2021/09/21 04:51:56;;;;;;;2.17;2.00;;;12.00;71.60;;;;;;4990847;28;20033;-77
2021/09/21 04:54:22;;;;;;;2.47;1.77;;;12.00;71.60;;;;;;4989570;28;20046;-77
2021/09/21 04:56:48;;;;;;;3.20;2.03;;;12.00;71.70;;;;;;4971954;28;20050;-76
2021/09/21 04:59:14;;;;;;;2.08;1.90;;;12.00;71.70;;;;;;5003494;28;20048;-77
2021/09/21 05:01:40;;;;;;;2.58;1.70;;;12.00;71.70;;;;;;4975702;28;20401;-76
2021/09/21 05:04:06;;;;;;;2.55;1.60;;;11.90;71.60;;;;;;4957076;28;20070;-76
2021/09/21 05:06:32;;;;;;;1.65;1.25;;;11.90;71.60;;;;;;4988001;28;20406;-78
2021/09/21 05:08:58;;;;;;;2.85;2.10;;;11.90;71.60;;;;;;4967790;28;20080;-77
2021/09/21 05:11:23;;;;;;;1.70;1.60;;;11.90;71.60;;;;;;4989560;28;20037;-77
2021/09/21 05:13:49;;;;;;;2.13;1.88;;;11.90;71.60;;;;;;4973067;28;20074;-77
2021/09/21 05:16:15;;;;;;;2.35;1.88;;;11.90;71.70;;;;;;4973985;28;20033;-77
2021/09/21 05:18:41;;;;;;;2.80;1.70;;;11.80;71.50;;;;;;4978040;28;20101;-77
2021/09/21 05:21:07;;;;;;;2.35;2.08;;;11.90;71.70;;;;;;4985904;28;20038;-77
2021/09/21 05:23:33;;;;;;;3.05;1.88;;;11.80;72.00;;;;;;4981427;28;20032;-77
2021/09/21 05:25:59;;;;;;;2.78;1.80;;;11.80;71.50;;;;;;4992811;28;20118;-76
2021/09/21 05:28:25;;;;;;;3.40;2.03;;;11.80;71.50;;;;;;5011447;28;20030;-76
2021/09/21 05:30:51;;;;;;;2.53;1.52;;;11.80;71.60;;;;;;5009195;28;20049;-78
2021/09/21 05:33:17;;;;;;;3.97;2.22;;;11.80;71.60;;;;;;5003700;28;20099;-78
2021/09/21 05:35:43;;;;;;;2.10;1.58;;;11.80;71.60;;;;;;5008079;28;20401;-76
2021/09/21 05:38:09;;;;;;;1.58;1.48;;;11.80;71.60;;;;;;5008581;28;20084;-78
2021/09/21 05:40:36;;;;;;;1.80;1.60;;;11.70;71.40;;;;;;5008202;28;20509;-76
2021/09/21 05:43:02;;;;;;;2.13;1.65;;;11.70;71.40;;;;;;5007430;28;20025;-76
2021/09/21 05:45:28;;;;;;;2.22;2.03;;;11.80;71.60;;;;;;5005794;28;20045;-76
2021/09/21 05:47:54;;;;;;;2.65;1.88;;;11.70;71.40;;;;;;4994472;28;20041;-76
2021/09/21 05:50:21;;;;;;;3.90;1.67;;;11.70;71.50;;;;;;4989459;28;20042;-77
2021/09/21 05:52:47;;;;;;;2.80;1.92;;;11.70;71.50;;;;;;4989221;28;20489;-78
2021/09/21 05:55:14;;;;;;;3.17;1.50;;;11.70;71.50;;;;;;5007121;28;20034;-77
2021/09/21 05:57:40;;;;;;;2.85;2.03;;;11.70;71.60;;;;;;5003297;28;20027;-77
2021/09/21 06:00:07;;;;;;;2.03;1.70;;;11.60;71.40;;;;;;4987687;28;20548;-78
2021/09/21 06:02:39;;;;;;;1.92;1.77;;;11.60;71.40;;;;;;4992544;28;20473;-76
2021/09/21 06:05:06;;;;;;;2.10;1.90;;;11.60;71.40;;;;;;4988592;28;20435;-77
2021/09/21 06:07:32;;;;;;;2.53;1.60;;;11.60;71.40;;;;;;4988505;28;20041;-78
2021/09/21 06:09:58;;;;;;;2.17;1.70;;;11.60;71.40;;;;;;4972504;28;20116;-76
2021/09/21 06:12:23;;;;;;;1.70;1.60;;;11.60;71.40;;;;;;4988394;28;20523;-77
2021/09/21 06:14:49;;;;;;;3.22;1.83;;;11.60;71.40;;;;;;4987846;28;20045;-77
2021/09/21 06:17:15;;;;;;;3.15;1.90;;;11.60;71.50;;;;;;5005403;28;20026;-77
2021/09/21 06:19:42;;;;;;;2.60;2.40;;;11.60;71.50;;;;;;4968742;28;20165;-79
2021/09/21 06:22:07;;;;;;;3.08;1.88;;;11.60;71.50;;;;;;4984260;28;20035;-77
2021/09/21 06:24:33;;;;;;;3.10;1.75;;;11.60;71.50;;;;;;4969449;28;20088;-79
2021/09/21 06:26:59;;;;;;;2.78;1.70;;;11.60;71.50;;;;;;4984067;28;20108;-77
2021/09/21 06:29:25;;;;;;;3.30;1.95;;;11.60;71.50;;;;;;4987105;28;20076;-76
2021/09/21 06:31:51;;;;;;;5.63;2.38;;;11.70;71.70;;;;;;4984840;28;20030;-78
2021/09/21 06:34:17;;;;;;;2.75;1.98;;;11.70;71.60;;;;;;4986195;28;20515;-77
2021/09/21 06:36:43;;;;;;;2.13;1.67;;;11.80;71.80;;;;;;5005037;28;20053;-78
2021/09/21 06:39:09;;;;;;;2.15;1.70;;;11.80;71.80;;;;;;4993280;28;20038;-78
2021/09/21 06:41:35;;;;;;;2.50;1.85;;;11.80;71.80;;;;;;4994958;28;20458;-78
2021/09/21 06:44:01;;;;;;;2.83;2.10;;;11.80;71.90;;;;;;4987389;28;20030;-78
2021/09/21 06:46:27;;;;;;;4.07;2.22;;;11.90;72.30;;;;;;4982132;28;20041;-78
2021/09/21 06:48:53;;;;;;;4.53;1.95;;;11.90;72.30;;;;;;4980866;28;21005;-79
2021/09/21 06:51:20;;;;;;;3.45;2.85;;;11.90;72.20;;;;;;4966856;28;20116;-78
2021/09/21 06:53:46;;;;;;;2.47;1.65;;;12.00;72.40;;;;;;4987463;28;20045;-78
2021/09/21 06:56:12;;;;;;;2.30;1.70;;;12.00;72.30;;;;;;4988219;28;20029;-78
2021/09/21 06:58:37;;;;;;;2.17;1.80;;;12.00;72.30;;;;;;4971749;28;20077;-79
2021/09/21 07:01:04;;;;;;;1.67;1.55;;;12.10;72.40;;;;;;5005665;28;20037;-78
2021/09/21 07:03:30;;;;;;;2.28;1.73;;;12.10;72.40;;;;;;4987651;28;20029;-80
2021/09/21 07:05:58;;;;;;;1.70;1.60;;;12.10;72.30;;;;;;5005479;28;20268;-78
2021/09/21 07:08:24;;;;;;;2.85;1.73;;;12.20;72.40;;;;;;4971187;28;20112;-80
2021/09/21 07:10:50;;;;;;;2.58;1.70;;;12.20;72.40;;;;;;4987854;28;20033;-81
2021/09/21 07:13:16;;;;;;;2.05;1.70;;;12.20;72.30;;;;;;4987541;28;20038;-78
2021/09/21 07:15:42;;;;;;;3.83;2.03;;;12.30;72.50;;;;;;5005253;28;20045;-78
2021/09/21 07:18:08;;;;;;;2.10;1.75;;;12.30;72.40;;;;;;4992780;28;20026;-79
2021/09/21 07:20:34;;;;;;;2.50;1.77;;;12.40;72.50;;;;;;5005175;28;20069;-78
2021/09/21 07:23:00;;;;;;;4.10;2.20;;;12.40;72.50;;;;;;5003640;28;20137;-78
2021/09/21 07:25:27;;;;;;;4.65;1.90;;;12.50;72.60;;;;;;4987765;28;20069;-78
2021/09/21 07:27:53;;;;;;;2.88;1.80;;;12.50;72.50;;;;;;4989805;28;20040;-79
2021/09/21 07:30:20;;;;;;;3.38;2.20;;;12.60;72.60;;;;;;4991403;28;20030;-78
2021/09/21 07:32:46;;;;;;;3.50;1.98;;;12.60;72.50;;;;;;5008562;28;20088;-78
2021/09/21 07:35:12;;;;;;;2.38;1.80;;;12.70;72.60;;;;;;4991070;28;20088;-78
2021/09/21 07:37:38;;;;;;;6.10;2.60;;;12.70;72.50;;;;;;4990800;28;20034;-78
2021/09/21 07:40:06;;;;;;;4.53;1.98;;;12.80;72.60;;;;;;4991072;28;20377;-78
2021/09/21 07:42:32;;;;;;;2.25;1.80;;;12.80;72.50;;;;;;4990745;28;20038;-78
2021/09/21 07:45:00;;;;;;;3.60;2.50;;;12.90;72.60;;;;;;4990662;28;20060;-77
2021/09/21 07:47:27;;;;;;;2.42;2.00;;;12.90;72.60;;;;;;4976868;28;20410;-77
2021/09/21 07:49:53;;;;;;;3.17;1.75;;;12.90;72.50;;;;;;4987805;28;20034;-79
2021/09/21 07:52:19;;;;;;;4.30;2.10;;;12.90;72.40;;;;;;4989268;28;20031;-79
2021/09/21 07:54:45;;;;;;;2.58;2.30;;;13.00;72.60;;;;;;4971072;28;20042;-78
2021/09/21 07:57:11;;;;;;;3.92;2.25;;;13.00;72.50;;;;;;4987628;28;20450;-79
2021/09/21 07:59:39;;;;;;;2.45;2.25;;;13.10;72.70;;;;;;5007148;28;20034;-79
2021/09/21 08:02:09;;;;;;;2.47;1.80;;;13.10;72.60;;;;;;5000842;28;20028;-79
2021/09/21 08:04:38;;;;;;;2.70;2.10;;;13.20;72.80;;;;;;5032580;28;20040;-78
2021/09/21 08:07:07;;;;;;;4.10;2.40;;;13.20;72.70;;;;;;5023825;28;20034;-77
2021/09/21 08:09:33;;;;;;;3.60;1.88;;;13.30;72.90;;;;;;5020490;28;20081;-78
2021/09/21 08:11:59;;;;;;;6.57;2.60;;;13.30;72.80;;;;;;4991700;28;20049;-78
2021/09/21 08:14:25;;;;;;;2.85;2.53;;;13.40;73.10;;;;;;4972567;28;20034;-79
2021/09/21 08:16:51;;;;;;;3.85;2.35;;;13.40;73.20;;;;;;4997750;28;20045;-79
2021/09/21 08:19:17;;;;;;;4.88;2.72;;;13.60;73.50;;;;;;4976513;28;20030;-78
2021/09/21 08:21:43;;;;;;;6.53;2.72;;;13.60;73.50;;;;;;4989521;28;20113;-78
2021/09/21 08:24:09;;;;;;;6.60;2.80;;;13.70;73.60;;;;;;4989476;28;20117;-77
2021/09/21 08:26:35;;;;;;;2.75;2.28;;;13.70;73.50;;;;;;4991015;28;20544;-77
2021/09/21 08:29:01;;;;;;;3.35;2.15;;;13.80;73.60;;;;;;5007933;28;20061;-76
2021/09/21 08:31:27;;;;;;;3.00;2.00;;;13.90;73.70;;;;;;4998986;28;20121;-78
2021/09/21 08:33:53;;;;;;;2.92;1.80;;;13.90;73.60;;;;;;5007349;28;20126;-77
2021/09/21 08:36:20;;;;;;;3.80;2.28;;;14.00;73.70;;;;;;5006365;28;20088;-76
2021/09/21 08:38:46;;;;;;;3.58;2.17;;;14.00;73.60;;;;;;4996046;28;20062;-77
2021/09/21 08:41:12;;;;;;;4.03;2.83;;;14.10;73.70;;;;;;4986900;28;20065;-76
2021/09/21 08:43:38;;;;;;;3.20;2.25;;;14.10;73.60;;;;;;4977587;28;20433;-76
2021/09/21 08:46:04;;;;;;;2.95;2.33;;;14.20;73.70;;;;;;5004559;28;20092;-77
2021/09/21 08:48:30;;;;;;;4.85;2.67;;;14.30;73.90;;;;;;4992753;28;20441;-77
2021/09/21 08:50:56;;;;;;;4.45;2.20;;;14.30;73.80;;;;;;4988371;28;20464;-76
2021/09/21 08:53:23;;;;;;;4.10;2.22;;;14.40;73.90;;;;;;5002291;28;20033;-78
2021/09/21 08:55:50;;;;;;;4.88;2.38;;;14.40;73.90;;;;;;5002926;28;20482;-77
2021/09/21 08:58:22;;;;;;;4.85;2.30;;;14.50;74.00;;;;;;4979464;28;20096;-77
2021/09/21 09:00:48;;;;;;;5.28;2.90;;;14.50;74.00;;;;;;4967439;28;20410;-77
2021/09/21 09:03:14;;;;;;;7.43;3.85;;;14.60;74.20;;;;;;4977023;28;20026;-80
2021/09/21 09:05:49;;;;;;;6.57;3.17;;;14.60;74.60;;;;;;4986818;28;20030;-77
2021/09/21 09:08:29;;;;;;;6.25;3.25;;;14.80;75.60;;;;;;4978749;28;20113;-78
2021/09/21 09:11:21;;;;;;;4.63;3.10;;;15.00;76.10;;;;;;5003004;28;20030;-78
2021/09/21 09:13:53;;;;;;;5.85;3.47;;;15.00;76.00;;;;;;4976674;28;20141;-78
2021/09/21 09:16:20;;;;;;;4.25;2.45;;;15.20;76.20;;;;;;4986107;28;20061;-78
2021/09/21 09:18:49;;;;;;;5.50;3.65;;;15.30;76.20;;;;;;4987126;28;20079;-77
2021/09/21 09:21:17;;;;;;;3.33;2.53;;;15.30;76.00;;;;;;4986355;28;20045;-78
2021/09/21 09:23:52;;;;;;;4.32;2.80;;;15.40;76.10;;;;;;4985369;28;20129;-78
2021/09/21 09:26:23;;;;;;;5.07;3.10;;;15.50;76.20;;;;;;4986148;28;20041;-77
2021/09/21 09:28:56;;;;;;;5.03;2.50;;;15.60;76.30;;;;;;4974780;28;20088;-77
2021/09/21 09:31:27;;;;;;;7.82;2.70;;;15.70;76.40;;;;;;4968317;28;20039;-78
2021/09/21 09:34:11;;;;;;;3.30;2.72;;;15.70;76.20;;;;;;4970115;28;20045;-78
2021/09/21 09:36:50;;;;;;;4.65;2.28;;;15.80;76.30;;;;;;4968401;28;20054;-78
2021/09/21 09:39:17;;;;;;;10.98;3.53;;;15.80;76.10;;;;;;4967584;28;20586;-78
2021/09/21 09:41:45;;;;;;;4.45;2.20;;;15.90;76.10;;;;;;4982846;28;20035;-78
2021/09/21 09:44:20;;;;;;;3.90;2.50;;;16.00;76.20;;;;;;4968008;28;20035;-77
2021/09/21 09:46:49;;;;;;;6.28;2.55;;;16.00;76.10;;;;;;4957704;28;20042;-77
2021/09/21 09:49:25;;;;;;;3.40;2.50;;;16.10;76.10;;;;;;4985209;28;20034;-77
2021/09/21 09:51:52;;;;;;;4.82;2.53;;;16.20;76.10;;;;;;5001933;28;20488;-77
2021/09/21 09:54:18;;;;;;;4.18;2.50;;;16.20;75.80;;;;;;4985966;28;20041;-77
2021/09/21 09:56:46;;;;;;;3.83;2.50;;;16.30;75.80;;;;;;4985625;28;20372;-77
2021/09/21 09:59:16;;;;;;;3.65;2.00;;;16.40;75.80;;;;;;4971529;28;20124;-78
2021/09/21 10:01:44;;;;;;;4.50;2.03;;;16.40;75.60;;;;;;4965663;28;20037;-78
2021/09/21 10:04:12;;;;;;;4.07;2.03;;;16.50;75.50;;;;;;4966132;28;20031;-78
2021/09/21 10:06:39;;;;;;;5.57;3.10;;;16.50;75.40;;;;;;4967583;28;20038;-76
2021/09/21 10:09:05;;;;;;;4.35;2.58;;;16.60;75.30;;;;;;4980699;28;20497;-76
2021/09/21 10:11:31;;;;;;;5.40;2.28;;;16.70;75.30;;;;;;4986731;28;20216;-77
2021/09/21 10:13:58;;;;;;;2.92;2.28;;;16.80;75.30;;;;;;4986831;28;20046;-77
2021/09/21 10:16:25;;;;;;;4.43;1.95;;;16.80;75.10;;;;;;4986904;28;20490;-78
2021/09/21 10:19:00;;;;;;;2.85;2.15;;;16.90;75.10;;;;;;4974135;28;20126;-77
2021/09/21 10:21:34;;;;;;;3.33;2.25;;;16.90;74.80;;;;;;4967386;28;20031;-77
2021/09/21 10:24:04;;;;;;;4.70;2.40;;;17.00;74.80;;;;;;4967071;28;20435;-78
2021/09/21 10:26:38;;;;;;;3.35;2.00;;;17.10;74.80;;;;;;4967980;28;20042;-77
2021/09/21 10:29:04;;;;;;;4.70;1.52;;;17.20;74.90;;;;;;4967567;28;20558;-77
2021/09/21 10:31:30;;;;;;;3.10;2.08;;;17.30;74.80;;;;;;4966099;28;20027;-78
2021/09/21 10:33:56;;;;;;;2.63;1.90;;;17.30;74.60;;;;;;4966901;28;20098;-78
2021/09/21 10:36:32;;;;;;;4.13;2.65;;;17.40;74.60;;;;;;4949035;28;20089;-77
2021/09/21 10:39:11;;;;;;;2.15;1.75;;;17.40;74.40;;;;;;4979026;28;20033;-79
2021/09/21 10:41:53;;;;;;;4.50;2.13;;;17.60;74.50;;;;;;4987045;28;20175;-78
2021/09/21 10:44:21;;;;;;;2.47;2.00;;;17.60;74.30;;;;;;4984871;28;20037;-78
2021/09/21 10:46:54;;;;;;;2.15;1.60;;;17.70;74.30;;;;;;4970387;28;20093;-79
2021/09/21 10:49:24;;;;;;;3.08;1.98;;;17.80;74.20;;;;;;4985410;28;20053;-77
2021/09/21 10:51:50;;;;;;;4.82;1.48;;;17.90;74.20;;;;;;5000107;28;20125;-78
2021/09/21 10:54:26;;;;;;;6.88;2.75;;;18.10;74.50;;;;;;4970361;28;20414;-77
2021/09/21 10:56:52;;;;;;;3.28;1.70;;;18.20;74.60;;;;;;4982417;28;20031;-78
2021/09/21 10:59:19;;;;;;;4.47;2.33;;;18.40;74.70;;;;;;4998096;28;20425;-78
2021/09/21 11:01:49;;;;;;;3.95;2.13;;;18.50;74.60;;;;;;4985973;28;20031;-77
2021/09/21 11:04:15;;;;;;;3.88;2.03;;;18.70;74.60;;;;;;5009826;28;20118;-77
2021/09/21 11:06:45;;;;;;;3.13;1.48;;;18.80;74.40;;;;;;4988146;28;20058;-78
2021/09/21 11:09:11;;;;;;;3.40;2.08;;;18.90;74.40;;;;;;4993253;28;20154;-77
2021/09/21 11:11:37;;;;;;;3.55;1.50;;;19.00;74.40;;;;;;4985013;28;20034;-76
2021/09/21 11:14:03;;;;;;;3.08;1.67;;;19.10;74.30;;;;;;4977037;28;20058;-76
2021/09/21 11:16:30;;;;;;;2.72;1.48;;;19.20;74.30;;;;;;4981244;28;20026;-77
2021/09/21 11:18:57;;;;;;;2.65;1.77;;;19.20;74.00;;;;;;5004049;28;20118;-76
2021/09/21 11:21:23;;;;;;;4.63;2.10;;;19.40;74.20;;;;;;4975142;28;20093;-76
2021/09/21 11:23:49;;;;;;;3.40;1.55;;;19.50;74.10;;;;;;4975238;28;20046;-76
2021/09/21 11:26:15;;;;;;;1.85;1.55;;;19.60;73.90;;;;;;4968851;28;20525;-77
2021/09/21 11:28:46;;;;;;;1.98;1.58;;;19.70;73.80;;;;;;4978523;28;20057;-77
2021/09/21 11:31:13;;;;;;;3.22;1.63;;;19.80;73.70;;;;;;4989136;28;20523;-77
2021/09/21 11:33:42;;;;;;;2.17;1.20;;;19.90;73.60;;;;;;4989691;28;20030;-77
2021/09/21 11:36:14;;;;;;;3.13;1.40;;;20.00;73.50;;;;;;4988220;28;20113;-77
2021/09/21 11:38:47;;;;;;;2.25;1.23;;;20.00;73.30;;;;;;4975503;28;20053;-77
2021/09/21 11:41:13;;;;;;;;;;;20.10;73.30;;;;;;4969751;28;20465;-77
2021/09/21 11:43:40;;;;;;;2.45;1.38;;;20.20;73.50;;;;;;4982416;28;19920;-77
2021/09/21 11:46:06;;;;;;;3.60;1.90;;;20.30;73.40;;;;;;5001881;28;20126;-77
2021/09/21 11:48:32;;;;;;;2.47;1.50;;;20.30;73.20;;;;;;4995733;28;20077;-77
2021/09/21 11:50:58;;;;;;;2.17;1.20;;;20.40;73.20;;;;;;4991008;28;20067;-77
2021/09/21 11:53:27;;;;;;;2.95;1.45;;;20.50;73.10;;;;;;4987489;28;20058;-77
2021/09/21 11:55:58;;;;;;;2.08;1.38;;;20.60;73.00;;;;;;4972037;28;20042;-77
2021/09/21 11:58:32;;;;;;;1.73;1.25;;;20.60;72.80;;;;;;4989610;28;20461;-78
2021/09/21 12:01:07;;;;;;;3.80;1.23;;;20.70;72.70;;;;;;4988822;28;20077;-77
2021/09/21 12:03:34;;;;;;;1.75;1.27;;;20.70;72.50;;;;;;4988339;28;20181;-76
2021/09/21 12:06:02;;;;;;;2.42;1.20;;;20.80;72.40;;;;;;4969391;28;20441;-76
2021/09/21 12:08:30;;;;;;;1.52;1.10;;;20.90;72.50;;;;;;4971097;28;20060;-76
2021/09/21 12:10:58;;;;;;;4.13;1.55;;;20.90;72.20;;;;;;4987387;28;20039;-78
2021/09/21 12:13:27;;;;;;;2.20;1.27;;;21.00;72.20;;;;;;4987831;28;20030;-78
2021/09/21 12:15:58;;;;;;;1.60;1.20;;;21.00;72.10;;;;;;4987354;28;20351;-78
2021/09/21 12:18:26;;;;;;;2.28;1.00;;;21.10;72.00;;;;;;4988650;28;20038;-78
2021/09/21 12:21:13;;;;;;;2.78;1.20;;;21.20;72.00;;;;;;4987562;28;20394;-77
2021/09/21 12:23:41;;;;;;;2.00;1.05;;;21.20;71.80;;;;;;4993945;28;20398;-78
2021/09/21 12:26:09;;;;;;;3.65;1.30;;;21.30;71.80;;;;;;4970490;28;20113;-77
2021/09/21 12:28:38;;;;;;;2.38;1.20;;;21.40;71.90;;;;;;4996847;28;20044;-78
2021/09/21 12:31:13;;;;;;;1.98;1.45;;;21.40;71.60;;;;;;5008141;28;20072;-79
2021/09/21 12:33:41;;;;;;;1.10;1.00;;;21.50;71.60;;;;;;4989889;28;20074;-78
2021/09/21 12:36:25;;;;;;;3.08;1.65;;;21.60;71.60;;;;;;4973286;28;20053;-77
2021/09/21 12:39:12;;;;;;;2.38;1.42;;;21.70;71.50;;;;;;4986349;28;21989;-78
2021/09/21 12:41:50;;;;;;;3.47;1.60;;;21.80;71.50;;;;;;4974383;28;20038;-80
2021/09/21 12:44:21;;;;;;;2.75;1.33;;;21.90;71.40;;;;;;4987356;28;20089;-79
2021/09/21 12:46:49;;;;;;;1.80;1.10;;;22.00;71.30;;;;;;4970018;28;20116;-79
2021/09/21 12:49:17;;;;;;;1.80;1.13;;;22.20;71.40;;;;;;4983687;28;20049;-77
2021/09/21 12:51:47;;;;;;;3.45;1.38;;;22.30;71.30;;;;;;5007027;28;20053;-76
2021/09/21 12:54:16;;;;;;;2.75;1.00;;;22.30;71.00;;;;;;5006723;28;20594;-79
2021/09/21 12:56:45;;;;;;;2.45;1.25;;;22.40;71.00;;;;;;5004776;28;20092;-78
2021/09/21 12:59:16;;;;;;;1.70;1.08;;;22.50;71.00;;;;;;4997066;28;20082;-79
2021/09/21 13:01:46;;;;;;;2.03;1.20;;;22.50;70.80;;;;;;4986542;28;20030;-79